Time;durP1;ratioP1;P1;durP2;ratioP2;P2;SDS_P1;SDS_P2;PMS_P1;PMS_P2;Temp;Humidity;BMP_temperature;BMP_pressure;BME280_temperature;BME280_humidity;BME280_pressure;Samples;Min_cycle;Max_cycle;Signal;HPM_P1;HPM_P2
2021/12/11 00:02:03;;;;;;;84.30;37.40;;;;;;;-4.05;80.68;98844.02;228414;1187;141732;-73
2021/12/11 00:07:09;;;;;;;84.00;36.00;;;;;;;-4.13;80.44;98850.27;229117;1193;139587;-69
2021/12/11 00:12:20;;;;;;;78.50;35.00;;;;;;;-4.12;80.33;98848.85;229330;1193;141685;-68
2021/12/11 00:17:27;;;;;;;84.90;40.80;;;;;;;-4.11;80.05;98852.38;230435;1193;139750;-72
2021/12/11 00:22:31;;;;;;;85.90;38.50;;;;;;;-4.18;79.89;98854.83;229008;1193;141189;-69
2021/12/11 00:27:34;;;;;;;82.60;38.20;;;;;;;-4.31;79.91;98857.98;230531;1193;140823;-71
2021/12/11 00:32:37;;;;;;;93.40;37.20;;;;;;;-4.38;80.16;98861.91;229774;1193;141882;-71
2021/12/11 00:37:40;;;;;;;66.40;33.10;;;;;;;-4.41;80.21;98864.02;229446;1193;142629;-66
2021/12/11 00:43:22;;;;;;;98.30;45.30;;;;;;;-4.46;80.04;98872.73;229547;1193;140246;-74
2021/12/11 00:48:28;;;;;;;102.70;42.50;;;;;;;-4.45;80.02;98881.63;228822;1193;141018;-73
2021/12/11 00:53:42;;;;;;;103.50;48.30;;;;;;;-4.46;79.82;98887.06;229050;1193;141717;-73
2021/12/11 00:58:50;;;;;;;100.20;44.80;;;;;;;-4.48;80.01;98890.63;229320;1193;139872;-72
2021/12/11 01:04:07;;;;;;;99.20;40.80;;;;;;;-4.54;79.81;98893.38;228868;1193;140919;-74
2021/12/11 01:09:22;;;;;;;117.50;49.10;;;;;;;-4.60;80.13;98897.29;228585;1193;140547;-69
2021/12/11 01:14:41;;;;;;;93.80;38.90;;;;;;;-4.56;80.46;98906.34;229579;1193;140048;-73
2021/12/11 01:19:47;;;;;;;99.10;43.90;;;;;;;-4.47;80.43;98914.11;227868;1193;139981;-72
2021/12/11 01:24:53;;;;;;;96.00;47.70;;;;;;;-4.44;80.28;98919.66;229259;1192;142166;-73
2021/12/11 01:29:58;;;;;;;103.60;42.60;;;;;;;-4.42;80.69;98925.75;228224;1193;141494;-65
2021/12/11 01:35:03;;;;;;;85.90;33.40;;;;;;;-4.43;80.61;98926.32;228167;1193;141781;-73
2021/12/11 01:40:11;;;;;;;101.00;47.60;;;;;;;-4.48;80.39;98929.85;227867;1193;142406;-70
2021/12/11 01:45:16;;;;;;;113.50;48.70;;;;;;;-4.48;80.51;98941.39;227813;1193;154615;-72
2021/12/11 01:50:44;;;;;;;95.90;44.20;;;;;;;-4.39;80.73;98943.08;228342;1193;140880;-68
2021/12/11 01:56:00;;;;;;;93.30;37.90;;;;;;;-4.35;80.94;98952.27;228361;1193;140113;-71
2021/12/11 02:01:33;;;;;;;92.90;42.00;;;;;;;-4.37;81.12;98959.44;228969;1193;140962;-68
2021/12/11 02:06:41;;;;;;;112.60;47.70;;;;;;;-4.25;81.40;98960.87;228865;1193;141654;-68
2021/12/11 02:11:47;;;;;;;;;;;;;;;-4.08;81.30;98955.34;229498;1193;141716;-69
2021/12/11 02:16:52;;;;;;;103.50;42.20;;;;;;;-3.99;81.37;98961.19;231193;1193;127075;-69
2021/12/11 02:22:01;;;;;;;91.30;41.20;;;;;;;-3.94;81.55;98972.27;230521;1193;140198;-69
2021/12/11 02:27:16;;;;;;;93.20;43.20;;;;;;;-3.82;82.10;98976.71;230218;1193;141889;-72
2021/12/11 02:32:21;;;;;;;86.00;38.10;;;;;;;-3.65;82.14;98973.63;229898;1193;139094;-73
2021/12/11 02:37:39;;;;;;;78.60;37.80;;;;;;;-3.44;82.22;98980.05;229639;1193;142059;-68
2021/12/11 02:42:58;;;;;;;83.80;44.80;;;;;;;-3.28;82.31;98988.95;228315;1193;140069;-70
2021/12/11 02:48:13;;;;;;;74.90;39.60;;;;;;;-3.15;82.70;99000.58;229286;1193;140402;-70
2021/12/11 02:53:25;;;;;;;89.50;41.50;;;;;;;-3.05;82.68;99005.08;228502;1193;139457;-67
2021/12/11 02:58:34;;;;;;;88.60;38.50;;;;;;;-3.02;82.58;99013.58;228402;1193;140818;-71
2021/12/11 03:03:44;;;;;;;95.10;43.90;;;;;;;-2.96;82.58;99014.39;228483;1193;141641;-71
2021/12/11 03:08:50;;;;;;;97.40;39.80;;;;;;;-2.91;82.43;99018.64;228666;1193;142008;-74
2021/12/11 03:13:55;;;;;;;80.80;40.50;;;;;;;-2.87;82.29;99013.59;229044;1193;140463;-69
2021/12/11 03:19:01;;;;;;;79.90;40.60;;;;;;;-2.85;82.35;99012.61;228392;1193;140137;-72
2021/12/11 03:24:07;;;;;;;77.90;39.90;;;;;;;-2.84;82.51;99018.29;228764;1193;139559;-70
2021/12/11 03:29:12;;;;;;;84.80;40.70;;;;;;;-2.82;82.51;99029.50;228885;1193;161156;-70
2021/12/11 03:34:25;;;;;;;82.80;37.20;;;;;;;-2.76;82.81;99033.19;228781;1193;140078;-73
2021/12/11 03:39:33;;;;;;;76.50;31.60;;;;;;;-2.66;82.81;99038.34;229004;1193;140343;-69
2021/12/11 03:44:36;;;;;;;65.40;33.60;;;;;;;-2.57;82.62;99044.09;228135;1193;140242;-69
2021/12/11 03:49:39;;;;;;;66.30;30.50;;;;;;;-2.57;82.80;99047.95;228393;1193;141274;-70
2021/12/11 03:54:45;;;;;;;48.80;20.10;;;;;;;-2.60;82.70;99046.87;228948;1193;142754;-75
2021/12/11 03:59:49;;;;;;;66.30;32.30;;;;;;;-2.63;82.72;99050.50;228566;1193;140204;-74
2021/12/11 04:04:58;;;;;;;65.40;28.90;;;;;;;-2.61;82.36;99054.74;230032;1193;140791;-65
2021/12/11 04:10:00;;;;;;;69.20;31.40;;;;;;;-2.60;82.51;99058.98;229574;1193;140566;-71
2021/12/11 04:15:05;;;;;;;60.40;28.80;;;;;;;-2.61;82.57;99063.51;229601;1193;140849;-67
2021/12/11 04:20:15;;;;;;;61.50;27.60;;;;;;;-2.62;82.69;99069.39;229701;1193;140493;-68
2021/12/11 04:25:24;;;;;;;70.10;28.90;;;;;;;-2.62;82.54;99078.58;230199;1193;139793;-68
2021/12/11 04:30:29;;;;;;;59.40;26.20;;;;;;;-2.59;82.18;99082.13;230294;1193;140549;-68
2021/12/11 04:35:32;;;;;;;52.30;28.20;;;;;;;-2.58;82.18;99085.81;230102;1193;140041;-68
2021/12/11 04:40:38;;;;;;;34.70;17.80;;;;;;;-2.61;82.25;99095.41;228809;1193;140290;-68
2021/12/11 04:45:52;;;;;;;59.50;28.20;;;;;;;-2.66;82.16;99098.39;229227;1193;139735;-68
2021/12/11 04:51:22;;;;;;;75.10;32.70;;;;;;;-2.68;81.96;99107.81;229009;1193;140097;-67
2021/12/11 04:56:53;;;;;;;66.50;29.00;;;;;;;-2.73;81.83;99118.21;229039;1193;140833;-67
2021/12/11 05:02:20;;;;;;;76.70;33.70;;;;;;;-2.80;82.10;99117.27;228834;1193;139520;-67
2021/12/11 05:12:35;;;;;;;80.70;34.40;;;;;;;-2.95;82.03;99110.73;228534;1193;139625;-68
2021/12/11 05:17:39;;;;;;;84.00;34.80;;;;;;;-2.99;82.20;99125.27;228563;1193;141731;-67
2021/12/11 05:22:43;;;;;;;68.80;31.90;;;;;;;-3.02;81.96;99134.46;229063;1193;139819;-67
2021/12/11 05:27:46;;;;;;;77.60;38.20;;;;;;;-3.04;81.85;99141.04;227958;1193;139589;-67
2021/12/11 05:32:50;;;;;;;73.80;35.20;;;;;;;-3.09;81.94;99140.50;229026;1193;140921;-68
2021/12/11 05:37:55;;;;;;;82.00;34.90;;;;;;;-3.15;81.89;99141.88;229100;1193;139599;-67
2021/12/11 05:42:58;;;;;;;72.40;32.10;;;;;;;-3.22;81.83;99149.38;229434;1193;139374;-68
2021/12/11 05:48:02;;;;;;;84.90;35.70;;;;;;;-3.28;81.95;99165.85;228005;1193;140782;-68
2021/12/11 05:53:06;;;;;;;102.00;37.00;;;;;;;-3.29;81.78;99170.80;229026;1193;140640;-67
2021/12/11 05:58:12;;;;;;;79.50;35.50;;;;;;;-3.28;81.75;99180.09;228883;1193;140695;-67
2021/12/11 06:03:21;;;;;;;86.30;36.90;;;;;;;-3.37;81.47;99187.83;228338;1193;139682;-67
2021/12/11 06:08:26;;;;;;;89.10;37.40;;;;;;;-3.49;81.63;99197.17;229137;1193;139210;-67
2021/12/11 06:13:40;;;;;;;84.10;36.80;;;;;;;-3.52;81.82;99206.54;229780;1193;153332;-68
2021/12/11 06:18:45;;;;;;;70.80;35.30;;;;;;;-3.60;81.36;99216.56;230372;1193;140110;-67
2021/12/11 06:23:54;;;;;;;78.10;36.10;;;;;;;-3.68;81.14;99220.39;229986;1193;139918;-67
2021/12/11 06:28:59;;;;;;;103.00;43.30;;;;;;;-3.68;81.22;99224.79;230045;1193;140450;-68
2021/12/11 06:34:03;;;;;;;85.60;37.60;;;;;;;-3.66;81.35;99224.19;230153;1195;140792;-67
2021/12/11 06:39:11;;;;;;;82.60;37.40;;;;;;;-3.65;81.42;99228.98;230252;1193;140743;-66
2021/12/11 06:44:15;;;;;;;165.70;78.00;;;;;;;-3.77;80.85;99237.08;228011;1193;139753;-67
2021/12/11 06:49:17;;;;;;;144.40;69.80;;;;;;;-3.88;80.76;99253.48;228885;1193;139699;-67
2021/12/11 06:54:33;;;;;;;149.30;60.80;;;;;;;-4.08;80.64;99267.69;227828;1193;141284;-66
2021/12/11 06:59:36;;;;;;;106.70;40.10;;;;;;;-4.25;80.49;99277.32;228639;1193;140069;-67
2021/12/11 07:04:39;;;;;;;82.10;40.00;;;;;;;-4.34;80.42;99285.36;228198;1193;140418;-67
2021/12/11 07:09:45;;;;;;;95.80;41.30;;;;;;;-4.43;80.23;99287.59;228307;1193;224010;-67
2021/12/11 07:14:49;;;;;;;81.90;38.20;;;;;;;-4.51;80.28;99289.23;227844;1193;139241;-66
2021/12/11 07:19:59;;;;;;;83.30;36.40;;;;;;;-4.51;80.36;99295.13;228273;1193;141728;-66
2021/12/11 07:25:16;;;;;;;85.50;37.50;;;;;;;-4.59;80.38;99301.79;228090;1193;141063;-67
2021/12/11 07:30:20;;;;;;;79.80;39.20;;;;;;;-4.69;80.00;99303.88;228663;1193;140717;-67
2021/12/11 07:35:27;;;;;;;76.40;33.70;;;;;;;-4.78;79.83;99305.93;228011;1193;141746;-66
2021/12/11 07:40:36;;;;;;;85.50;40.60;;;;;;;-4.85;79.67;99311.51;229572;1193;140441;-66
2021/12/11 07:45:39;;;;;;;;;;;;;;;-5.00;79.29;99318.15;228275;1193;244657;-66
2021/12/11 07:50:43;;;;;;;70.80;34.90;;;;;;;-5.12;79.53;99333.46;229324;1193;126275;-67
2021/12/11 07:55:45;;;;;;;66.20;27.50;;;;;;;-5.11;79.75;99341.86;229591;1193;140965;-67
2021/12/11 08:00:49;;;;;;;59.80;30.40;;;;;;;-5.08;79.96;99351.48;229121;1193;140299;-66
2021/12/11 08:05:53;;;;;;;79.20;35.60;;;;;;;-5.03;79.82;99366.55;229018;1193;140551;-66
2021/12/11 08:10:59;;;;;;;75.90;36.30;;;;;;;-4.88;80.15;99372.02;229771;1193;140236;-67
2021/12/11 08:16:07;;;;;;;78.10;37.90;;;;;;;-4.71;80.18;99390.23;229916;1193;140681;-65
2021/12/11 08:21:10;;;;;;;70.00;36.60;;;;;;;-4.56;79.99;99393.40;230129;1193;139054;-67
2021/12/11 08:26:16;;;;;;;182.30;77.40;;;;;;;-4.51;79.87;99384.84;230250;1193;140106;-66
2021/12/11 08:31:20;;;;;;;98.20;44.60;;;;;;;-4.45;79.99;99385.80;230243;1193;140606;-67
2021/12/11 08:36:24;;;;;;;77.10;38.30;;;;;;;-4.33;80.29;99383.79;230213;1193;139700;-66
2021/12/11 08:41:29;;;;;;;82.10;43.50;;;;;;;-4.17;80.55;99392.64;229267;1193;141267;-66
2021/12/11 08:46:33;;;;;;;83.70;37.80;;;;;;;-3.96;80.73;99400.96;229600;1193;140596;-66
2021/12/11 08:51:53;;;;;;;95.30;47.30;;;;;;;-3.70;80.84;99403.80;228555;1193;141758;-66
2021/12/11 08:57:00;;;;;;;100.20;50.20;;;;;;;-3.47;80.92;99416.96;229220;1193;140066;-66
2021/12/11 09:02:14;;;;;;;99.40;53.80;;;;;;;-3.31;81.18;99429.89;229050;1193;140849;-67
2021/12/11 09:07:41;;;;;;;;;;;;;;;;;;;;;
2021/12/11 09:12:58;;;;;;;110.20;51.40;;;;;;;-2.94;81.23;99430.65;229190;1193;141472;-67
2021/12/11 09:18:10;;;;;;;128.20;64.30;;;;;;;-2.77;80.93;99436.70;229282;1193;139656;-67
2021/12/11 09:23:24;;;;;;;145.00;66.50;;;;;;;-2.66;81.04;99451.11;227789;1193;140314;-67
2021/12/11 09:28:37;;;;;;;146.00;61.60;;;;;;;-2.57;81.19;99463.06;228085;1193;151939;-66
2021/12/11 09:33:56;;;;;;;149.10;55.40;;;;;;;-2.45;81.25;99474.30;228917;1193;140831;-66
2021/12/11 09:39:25;;;;;;;115.40;53.00;;;;;;;-2.24;81.16;99478.11;228056;1193;141172;-66
2021/12/11 09:44:35;;;;;;;107.90;52.00;;;;;;;-2.05;81.04;99492.48;229525;1193;139911;-67
2021/12/11 09:49:43;;;;;;;98.60;46.30;;;;;;;-1.90;81.28;99501.19;229121;1193;140367;-66
2021/12/11 09:54:55;;;;;;;98.90;53.40;;;;;;;-1.76;81.21;99504.98;228220;1193;140298;-67
2021/12/11 10:00:04;;;;;;;122.50;57.30;;;;;;;-1.58;81.33;99508.38;228290;1193;139847;-67
2021/12/11 10:05:30;;;;;;;122.90;59.20;;;;;;;-1.39;81.19;99510.01;229049;1193;140165;-66
2021/12/11 10:10:33;;;;;;;105.80;53.60;;;;;;;-1.21;81.46;99521.13;229223;1193;140922;-67
2021/12/11 10:15:39;;;;;;;92.90;51.00;;;;;;;-1.00;81.63;99524.05;228678;1193;140354;-68
2021/12/11 10:21:32;;;;;;;101.30;46.70;;;;;;;-0.83;81.46;99524.66;229463;1193;140299;-67
2021/12/11 10:26:36;;;;;;;99.10;47.80;;;;;;;-0.61;81.29;99519.97;229864;1193;141889;-70
2021/12/11 10:31:50;;;;;;;89.70;48.20;;;;;;;-0.48;80.97;99520.97;230159;1193;141126;-68
2021/12/11 10:37:06;;;;;;;92.20;49.20;;;;;;;-0.33;81.35;99534.98;230389;1193;140765;-70
2021/12/11 10:42:13;;;;;;;82.20;48.90;;;;;;;-0.15;81.44;99538.95;229862;1193;139619;-69
2021/12/11 10:47:34;;;;;;;77.90;41.30;;;;;;;0.02;81.14;99543.52;229656;1193;140407;-67
2021/12/11 10:52:48;;;;;;;89.10;42.50;;;;;;;0.14;81.17;99548.50;228862;1193;142323;-67
2021/12/11 10:57:54;;;;;;;84.70;45.90;;;;;;;0.31;81.71;99559.45;227766;1193;139776;-70
2021/12/11 11:02:58;;;;;;;82.00;44.50;;;;;;;0.49;81.21;99558.09;229370;1193;139296;-70
2021/12/11 11:08:02;;;;;;;80.50;44.60;;;;;;;0.57;81.09;99549.36;228716;1193;140478;-70
2021/12/11 11:13:10;;;;;;;79.70;44.90;;;;;;;0.66;81.07;99552.09;228418;1193;140165;-69
2021/12/11 11:18:15;;;;;;;89.40;45.90;;;;;;;0.80;80.84;99552.33;227858;1193;140826;-68
2021/12/11 11:23:18;;;;;;;84.20;44.20;;;;;;;0.92;81.30;99558.39;228550;1193;140550;-70
2021/12/11 11:28:34;;;;;;;;;;;;;;;;;;;;;
2021/12/11 11:33:38;;;;;;;90.10;50.30;;;;;;;1.22;81.04;99559.18;227766;1193;140242;-69
2021/12/11 11:38:49;;;;;;;85.70;46.30;;;;;;;1.30;80.75;99569.32;228475;1193;139282;-68
2021/12/11 11:43:52;;;;;;;87.00;45.60;;;;;;;1.48;80.62;99576.90;227902;1193;140411;-69
2021/12/11 11:49:04;;;;;;;97.60;54.10;;;;;;;1.59;80.29;99590.92;229199;1193;140463;-69
2021/12/11 11:54:48;;;;;;;97.50;52.70;;;;;;;1.61;80.32;99597.15;229096;1193;139326;-67
2021/12/11 11:59:53;;;;;;;91.20;52.00;;;;;;;1.62;80.07;99604.46;228963;1193;140695;-70
2021/12/11 12:04:58;;;;;;;91.30;44.70;;;;;;;1.68;79.87;99610.58;229026;1193;139741;-71
2021/12/11 12:10:08;;;;;;;95.60;50.80;;;;;;;1.77;79.58;99610.72;229332;1193;141710;-69
2021/12/11 12:15:16;;;;;;;102.40;51.50;;;;;;;1.85;79.58;99610.98;229407;1193;139721;-70
2021/12/11 12:20:20;;;;;;;90.00;51.40;;;;;;;1.86;79.48;99616.39;229958;1192;141731;-70
2021/12/11 12:25:25;;;;;;;89.40;49.10;;;;;;;1.86;79.41;99622.63;228175;1193;141230;-69
2021/12/11 12:30:39;;;;;;;85.50;44.60;;;;;;;1.88;79.50;99625.33;227975;1193;141672;-68
2021/12/11 12:35:45;;;;;;;78.80;48.70;;;;;;;1.96;79.10;99639.87;230279;1194;141449;-72
2021/12/11 12:41:05;;;;;;;75.40;45.10;;;;;;;1.99;78.98;99648.26;228007;1193;143173;-67
2021/12/11 12:46:08;;;;;;;71.80;41.90;;;;;;;1.97;78.82;99652.67;229314;1193;140723;-69
2021/12/11 12:51:16;;;;;;;78.60;46.90;;;;;;;1.92;78.84;99658.17;228573;1193;140780;-69
2021/12/11 12:56:37;;;;;;;86.80;46.00;;;;;;;1.81;78.52;99663.08;227845;1193;140240;-68
2021/12/11 13:01:50;;;;;;;72.40;39.30;;;;;;;1.72;78.59;99668.45;228943;1193;140279;-68
2021/12/11 13:07:02;;;;;;;75.10;40.10;;;;;;;1.70;78.72;99672.15;229139;1193;139764;-66
2021/12/11 13:12:13;;;;;;;71.10;40.50;;;;;;;1.70;78.76;99679.61;229111;1193;139185;-69
2021/12/11 13:17:25;;;;;;;74.20;42.70;;;;;;;1.63;78.42;99688.40;228422;1193;139681;-68
2021/12/11 13:22:33;;;;;;;79.40;43.80;;;;;;;1.51;78.17;99693.34;228187;1193;140141;-67
2021/12/11 13:27:38;;;;;;;77.00;44.30;;;;;;;1.33;77.96;99703.14;227885;1193;140079;-68
2021/12/11 13:32:42;;;;;;;71.00;37.40;;;;;;;1.15;78.06;99705.58;228077;1193;139936;-66
2021/12/11 13:37:46;;;;;;;59.90;37.10;;;;;;;1.03;77.78;99705.39;228289;1193;141519;-69
2021/12/11 13:42:50;;;;;;;67.50;39.00;;;;;;;0.85;77.75;99717.36;228100;1193;143179;-69
2021/12/11 13:47:55;;;;;;;75.80;39.80;;;;;;;0.65;77.68;99715.73;229307;1193;140198;-68
2021/12/11 13:53:00;;;;;;;52.70;33.70;;;;;;;0.45;77.97;99717.10;227891;1193;140436;-67
2021/12/11 13:58:08;;;;;;;67.90;36.30;;;;;;;0.24;77.28;99716.02;228011;1193;140046;-66
2021/12/11 14:03:18;;;;;;;74.90;37.30;;;;;;;-0.01;77.48;99719.30;229016;1193;139809;-67
2021/12/11 14:08:23;;;;;;;83.80;39.90;;;;;;;-0.30;77.49;99730.22;228072;1193;140615;-67
2021/12/11 14:13:28;;;;;;;73.20;40.50;;;;;;;-0.49;77.69;99728.62;227914;1193;139894;-66
2021/12/11 14:18:31;;;;;;;69.00;36.40;;;;;;;-0.67;77.71;99727.56;229391;1193;142228;-70
2021/12/11 14:23:37;;;;;;;53.60;32.20;;;;;;;-0.86;77.69;99730.71;229664;1193;140000;-68
2021/12/11 14:28:42;;;;;;;70.20;37.20;;;;;;;-1.12;77.36;99740.41;229425;1193;140958;-68
2021/12/11 14:33:47;;;;;;;81.40;41.80;;;;;;;-1.34;77.43;99750.90;230044;1193;140882;-66
2021/12/11 14:39:03;;;;;;;72.50;36.20;;;;;;;-1.52;77.36;99757.79;229208;1193;153893;-67
2021/12/11 14:44:12;;;;;;;65.00;37.30;;;;;;;-1.65;77.45;99764.20;230385;1193;140032;-68
2021/12/11 14:49:15;;;;;;;76.90;44.10;;;;;;;-1.79;77.44;99772.88;228183;1193;152877;-69
2021/12/11 14:54:19;;;;;;;67.30;43.50;;;;;;;-1.99;77.02;99781.53;229765;1193;139569;-65
2021/12/11 14:59:41;;;;;;;93.80;49.90;;;;;;;-2.27;76.87;99784.37;228630;1193;140151;-65
2021/12/11 15:04:49;;;;;;;82.70;42.40;;;;;;;-2.48;77.06;99795.71;227822;1193;141111;-65
2021/12/11 15:09:53;;;;;;;77.60;42.50;;;;;;;-2.68;77.28;99805.96;228570;1193;142374;-65
2021/12/11 15:14:59;;;;;;;84.30;46.80;;;;;;;-2.85;77.43;99814.23;228334;1193;141445;-65
2021/12/11 15:20:09;;;;;;;130.20;55.30;;;;;;;-2.99;76.93;99827.89;228028;1193;140804;-66
2021/12/11 15:25:13;;;;;;;153.30;68.10;;;;;;;-3.11;77.38;99838.10;228452;1193;140456;-66
2021/12/11 15:30:29;;;;;;;143.90;71.00;;;;;;;-3.22;77.52;99844.67;228300;1193;141549;-66
2021/12/11 15:35:38;;;;;;;162.50;72.70;;;;;;;-3.32;77.68;99855.22;227899;1193;140615;-67
2021/12/11 15:40:44;;;;;;;114.40;56.30;;;;;;;-3.38;78.23;99858.22;228492;1193;143008;-68
2021/12/11 15:45:53;;;;;;;127.30;59.00;;;;;;;-3.42;78.25;99873.55;228909;1193;141315;-69
2021/12/11 15:50:57;;;;;;;111.20;55.40;;;;;;;-3.38;78.20;99885.82;228888;1193;140746;-67
2021/12/11 15:56:03;;;;;;;133.00;62.40;;;;;;;-3.33;78.33;99897.23;229531;1193;141242;-66
2021/12/11 16:01:16;;;;;;;147.20;72.30;;;;;;;-3.40;78.01;99905.63;227942;1193;140295;-69
2021/12/11 16:06:28;;;;;;;124.10;58.80;;;;;;;-3.50;78.47;99908.17;229096;1193;142023;-69
2021/12/11 16:11:33;;;;;;;121.20;53.60;;;;;;;-3.55;78.83;99915.86;228869;1193;140811;-72
2021/12/11 16:16:37;;;;;;;183.90;78.10;;;;;;;-3.57;78.73;99924.09;229250;1193;140955;-71
2021/12/11 16:21:42;;;;;;;171.10;69.20;;;;;;;-3.55;78.78;99926.15;230061;1193;141581;-73
2021/12/11 16:26:46;;;;;;;161.70;74.80;;;;;;;-3.48;78.99;99925.67;228372;1193;141620;-72
2021/12/11 16:31:51;;;;;;;144.50;63.40;;;;;;;-3.43;79.13;99939.31;228677;1193;140883;-72
2021/12/11 16:36:54;;;;;;;151.40;72.30;;;;;;;-3.44;79.35;99944.79;230552;1193;140459;-72
2021/12/11 16:42:00;;;;;;;156.40;71.30;;;;;;;-3.41;79.31;99961.66;227954;1193;141525;-71
2021/12/11 16:47:08;;;;;;;141.50;63.70;;;;;;;-3.36;79.30;99964.18;230007;1193;141370;-72
2021/12/11 16:52:15;;;;;;;153.60;69.60;;;;;;;-3.30;79.62;99974.27;229484;1193;140707;-69
2021/12/11 16:57:18;;;;;;;148.30;65.60;;;;;;;-3.21;79.48;99981.37;228994;1193;141081;-72
2021/12/11 17:02:28;;;;;;;132.00;57.10;;;;;;;-3.11;79.55;99984.84;228463;1193;140589;-72
2021/12/11 17:07:32;;;;;;;148.40;70.90;;;;;;;-3.13;79.50;99986.05;227938;1193;140227;-70
2021/12/11 17:12:36;;;;;;;145.80;71.20;;;;;;;-3.13;79.78;99990.55;228766;1193;139592;-71
2021/12/11 17:17:40;;;;;;;152.90;74.60;;;;;;;-3.05;80.44;99985.65;227904;1193;140807;-71
2021/12/11 17:22:46;;;;;;;174.90;77.60;;;;;;;-2.97;80.36;99985.14;228654;1187;139491;-71
2021/12/11 17:27:53;;;;;;;149.90;75.10;;;;;;;-2.86;80.40;99988.45;228565;1193;140626;-68
2021/12/11 17:33:03;;;;;;;187.00;91.50;;;;;;;-2.74;80.59;100000.27;228218;1193;140207;-69
2021/12/11 17:38:09;;;;;;;154.80;81.90;;;;;;;-2.65;80.68;100009.20;228358;1193;140001;-67
2021/12/11 17:43:14;;;;;;;167.70;90.10;;;;;;;-2.61;80.59;100011.33;228560;1193;140285;-73
2021/12/11 17:48:18;;;;;;;162.80;79.50;;;;;;;-2.62;80.59;100023.04;228249;1193;140472;-71
2021/12/11 17:53:21;;;;;;;166.10;78.10;;;;;;;-2.64;80.59;100036.39;228743;1193;141887;-71
2021/12/11 17:58:42;;;;;;;162.10;74.20;;;;;;;-2.55;80.47;100041.50;228170;1193;141807;-71
2021/12/11 18:03:59;;;;;;;162.90;80.70;;;;;;;-2.49;80.51;100049.52;227944;1193;141012;-70
2021/12/11 18:09:08;;;;;;;138.60;70.60;;;;;;;-2.51;80.56;100055.79;229176;1194;141237;-70
2021/12/11 18:14:50;;;;;;;126.50;63.60;;;;;;;-2.58;80.53;100061.33;229821;1194;141716;-75
2021/12/11 18:20:26;;;;;;;153.80;72.70;;;;;;;-2.56;80.85;100062.69;228545;1193;142494;-73
2021/12/11 18:25:50;;;;;;;142.20;67.20;;;;;;;-2.45;80.78;100071.48;229075;1193;141218;-73
2021/12/11 18:30:56;;;;;;;155.90;76.80;;;;;;;-2.33;80.98;100074.77;229803;1193;142492;-74
2021/12/11 18:36:04;;;;;;;162.20;81.90;;;;;;;-2.25;81.12;100072.60;230396;1193;139499;-73
2021/12/11 18:41:15;;;;;;;145.40;71.80;;;;;;;-2.18;81.09;100067.14;229738;1193;140929;-73
2021/12/11 18:46:21;;;;;;;147.30;72.50;;;;;;;-2.12;81.29;100070.88;229349;1193;140218;-71
2021/12/11 18:51:31;;;;;;;133.60;71.20;;;;;;;-2.03;80.99;100072.13;228971;1193;141224;-75
2021/12/11 18:56:38;;;;;;;160.70;80.30;;;;;;;-1.96;81.20;100080.31;228776;1193;140103;-70
2021/12/11 19:01:53;;;;;;;138.70;74.30;;;;;;;-1.91;81.15;100085.24;228368;1193;140336;-71
2021/12/11 19:06:58;;;;;;;143.90;79.60;;;;;;;-1.94;81.05;100093.66;228052;1193;139553;-72
2021/12/11 19:12:06;;;;;;;138.50;73.30;;;;;;;-1.93;81.24;100099.75;229083;1193;139710;-73
2021/12/11 19:17:11;;;;;;;156.80;76.20;;;;;;;-1.85;81.36;100103.99;229235;1193;142264;-73
2021/12/11 19:22:27;;;;;;;128.20;71.80;;;;;;;-1.76;81.43;100109.34;228386;1193;140752;-72
2021/12/11 19:27:34;;;;;;;155.10;73.50;;;;;;;-1.73;81.70;100125.15;228701;1193;140310;-72
2021/12/11 19:32:39;;;;;;;148.90;73.90;;;;;;;-1.70;81.64;100133.91;228295;1193;139831;-70
2021/12/11 19:37:43;;;;;;;122.40;60.10;;;;;;;-1.62;81.77;100147.05;228293;1193;140197;-74
2021/12/11 19:42:46;;;;;;;135.90;72.20;;;;;;;-1.58;81.48;100157.74;228545;1193;139956;-74
2021/12/11 19:47:59;;;;;;;128.40;64.70;;;;;;;-1.55;81.74;100162.59;228582;1193;139642;-72
2021/12/11 19:53:01;;;;;;;153.20;72.10;;;;;;;-1.53;81.95;100168.42;228805;1193;140291;-71
2021/12/11 19:58:09;;;;;;;138.30;68.50;;;;;;;-1.50;82.14;100166.27;229105;1193;139530;-69
2021/12/11 20:03:18;;;;;;;144.10;70.60;;;;;;;-1.38;81.95;100175.83;228730;1193;140851;-69
2021/12/11 20:08:26;;;;;;;141.50;77.40;;;;;;;-1.29;81.95;100182.30;228784;1193;140683;-72
2021/12/11 20:13:31;;;;;;;133.10;73.00;;;;;;;-1.27;82.04;100185.18;229557;1193;139586;-77
2021/12/11 20:18:46;;;;;;;134.90;71.70;;;;;;;-1.27;82.08;100194.63;228591;1193;162548;-74
2021/12/11 20:23:55;;;;;;;143.00;68.90;;;;;;;-1.23;81.89;100196.98;229363;1193;140821;-71
2021/12/11 20:29:06;;;;;;;161.30;76.80;;;;;;;-1.16;81.87;100210.98;230194;1193;141581;-74
2021/12/11 20:34:09;;;;;;;132.20;72.90;;;;;;;-1.10;81.96;100215.55;229669;1193;141377;-76
2021/12/11 20:39:16;;;;;;;145.00;74.80;;;;;;;-1.08;81.95;100220.81;230005;1193;141002;-75
2021/12/11 20:44:25;;;;;;;146.00;70.70;;;;;;;-1.09;82.02;100224.56;229745;1193;142234;-73
2021/12/11 20:49:28;;;;;;;159.20;78.60;;;;;;;-1.04;81.68;100231.77;230261;1195;141046;-76
2021/12/11 20:54:34;;;;;;;152.20;76.70;;;;;;;-1.04;81.56;100245.69;229708;1193;140872;-77
2021/12/11 20:59:41;;;;;;;144.00;75.40;;;;;;;-1.05;81.57;100256.40;229198;1195;140170;-76
2021/12/11 21:04:52;;;;;;;151.90;79.60;;;;;;;-1.06;81.67;100264.79;229630;1194;142641;-76
2021/12/11 21:10:33;;;;;;;152.30;72.10;;;;;;;-1.08;81.56;100263.89;229443;1193;141377;-71
2021/12/11 21:16:04;;;;;;;153.10;80.50;;;;;;;-1.09;81.56;100267.27;228394;1187;140508;-72
2021/12/11 21:21:22;;;;;;;152.90;78.90;;;;;;;-1.06;81.54;100276.96;229129;1194;140914;-74
2021/12/11 21:26:29;;;;;;;141.60;72.20;;;;;;;-1.08;81.66;100287.23;228161;1193;139909;-74
2021/12/11 21:31:42;;;;;;;184.20;87.00;;;;;;;-1.10;81.52;100289.34;229068;1193;139790;-74
2021/12/11 21:36:46;;;;;;;165.00;82.70;;;;;;;-1.05;81.56;100291.98;228128;1193;143515;-73
2021/12/11 21:42:05;;;;;;;167.50;85.00;;;;;;;-1.04;81.73;100299.23;228311;1193;140572;-73
2021/12/11 21:47:29;;;;;;;175.40;86.90;;;;;;;-1.07;81.55;100311.77;228672;1193;141597;-75
2021/12/11 21:52:38;;;;;;;176.30;88.60;;;;;;;-1.10;81.99;100324.98;228142;1193;140344;-75
2021/12/11 21:57:41;;;;;;;178.60;82.50;;;;;;;-1.14;81.90;100327.08;228671;1193;140925;-74
2021/12/11 22:03:12;;;;;;;169.50;87.60;;;;;;;-1.10;81.70;100325.80;228400;1193;141768;-72
2021/12/11 22:08:17;;;;;;;160.30;85.10;;;;;;;-1.07;81.82;100332.35;228546;1193;140993;-72
2021/12/11 22:13:23;;;;;;;176.40;93.10;;;;;;;-1.08;81.79;100340.80;229266;1193;140189;-74
2021/12/11 22:18:26;;;;;;;175.20;86.00;;;;;;;-1.14;81.59;100344.85;230370;1193;139569;-75
2021/12/11 22:23:31;;;;;;;171.60;85.30;;;;;;;-1.15;81.43;100351.27;229829;1193;141423;-76
2021/12/11 22:28:34;;;;;;;171.10;91.70;;;;;;;-1.16;81.41;100356.36;229259;1186;141310;-76
2021/12/11 22:33:38;;;;;;;158.40;88.30;;;;;;;-1.15;81.69;100354.58;230238;1193;139983;-70
2021/12/11 22:38:43;;;;;;;171.10;81.50;;;;;;;-1.16;81.55;100357.46;230192;1194;140966;-71
2021/12/11 22:44:11;;;;;;;179.50;90.30;;;;;;;-1.07;81.80;100357.48;230127;1193;140403;-71
2021/12/11 22:49:17;;;;;;;201.60;96.80;;;;;;;-0.96;81.98;100359.95;229975;1193;140413;-71
2021/12/11 22:54:30;;;;;;;181.10;92.50;;;;;;;-0.92;81.79;100368.87;229852;1194;140383;-72
2021/12/11 22:59:36;;;;;;;193.00;95.10;;;;;;;-0.95;81.58;100371.36;229846;1193;139683;-71
2021/12/11 23:04:51;;;;;;;189.80;93.30;;;;;;;-1.02;81.68;100376.17;228534;1195;141045;-70
2021/12/11 23:09:58;;;;;;;180.10;92.20;;;;;;;-1.03;81.48;100381.83;229151;1193;139873;-71